Terminal Aerodrome Forecast
Issued by NWS

Home | Current Version | Previous Version | Graphics & Text | Print | Product List | Glossary On
Versions: 1 2 3 4 5 6 7 8 9 10 11 12
277
FTUS41 KCLE 192320
TAFFDY
TAF
KFDY 192320Z 2000/2024 32012KT P6SM SKC
     FM200100 33009KT P6SM SKC
     FM200600 31004KT P6SM SKC
     FM201500 34007KT P6SM SKC=

USA.gov is the U.S. government's official web portal to all federal, state and local government web resources and services.